sensor_id;sensor_type;location;lat;lon;timestamp;pressure;altitude;pressure_sealevel;temperature;humidity
73558;BME280;61829;53.286;10.434;2023-05-25T00:00:32;102214.84;;;10.40;95.32
73558;BME280;61829;53.286;10.434;2023-05-25T00:03:18;102214.53;;;10.43;95.11
73558;BME280;61829;53.286;10.434;2023-05-25T00:05:44;102220.94;;;10.42;95.12
73558;BME280;61829;53.286;10.434;2023-05-25T00:08:10;102216.41;;;10.42;94.84
73558;BME280;61829;53.286;10.434;2023-05-25T00:10:36;102208.31;;;10.42;94.32
73558;BME280;61829;53.286;10.434;2023-05-25T00:13:02;102207.47;;;10.42;94.21
73558;BME280;61829;53.286;10.434;2023-05-25T00:15:28;102210.28;;;10.40;94.23
73558;BME280;61829;53.286;10.434;2023-05-25T00:17:55;102202.06;;;10.42;94.22
73558;BME280;61829;53.286;10.434;2023-05-25T00:20:20;102207.59;;;10.40;94.20
73558;BME280;61829;53.286;10.434;2023-05-25T00:22:46;102210.16;;;10.42;94.40
73558;BME280;61829;53.286;10.434;2023-05-25T00:25:12;102217.38;;;10.41;94.15
73558;BME280;61829;53.286;10.434;2023-05-25T00:27:40;102216.53;;;10.41;93.96
73558;BME280;61829;53.286;10.434;2023-05-25T00:30:06;102213.84;;;10.41;93.92
73558;BME280;61829;53.286;10.434;2023-05-25T00:32:32;102208.44;;;10.41;94.13
73558;BME280;61829;53.286;10.434;2023-05-25T00:34:58;102204.19;;;10.38;93.96
73558;BME280;61829;53.286;10.434;2023-05-25T00:37:24;102209.75;;;10.37;94.18
73558;BME280;61829;53.286;10.434;2023-05-25T00:39:50;102210.91;;;10.34;94.14
73558;BME280;61829;53.286;10.434;2023-05-25T00:42:16;102212.19;;;10.30;93.68
73558;BME280;61829;53.286;10.434;2023-05-25T00:44:41;102208.81;;;10.28;93.81
73558;BME280;61829;53.286;10.434;2023-05-25T00:47:09;102209.06;;;10.25;93.85
73558;BME280;61829;53.286;10.434;2023-05-25T00:49:36;102205.13;;;10.19;93.68
73558;BME280;61829;53.286;10.434;2023-05-25T00:52:02;102209.09;;;10.15;93.37
73558;BME280;61829;53.286;10.434;2023-05-25T00:54:28;102211.38;;;10.10;93.48
73558;BME280;61829;53.286;10.434;2023-05-25T00:57:01;102204.91;;;10.03;93.69
73558;BME280;61829;53.286;10.434;2023-05-25T00:59:47;102205.50;;;9.97;93.53
73558;BME280;61829;53.286;10.434;2023-05-25T01:02:18;102211.44;;;9.90;94.19
73558;BME280;61829;53.286;10.434;2023-05-25T01:04:46;102210.06;;;9.86;93.56
73558;BME280;61829;53.286;10.434;2023-05-25T01:07:17;102208.66;;;9.82;93.92
73558;BME280;61829;53.286;10.434;2023-05-25T01:09:44;102207.25;;;9.78;94.13
73558;BME280;61829;53.286;10.434;2023-05-25T01:12:13;102210.50;;;9.72;94.60
73558;BME280;61829;53.286;10.434;2023-05-25T01:14:40;102210.09;;;9.67;95.41
73558;BME280;61829;53.286;10.434;2023-05-25T01:17:08;102215.94;;;9.62;94.96
73558;BME280;61829;53.286;10.434;2023-05-25T01:19:37;102219.03;;;9.58;95.09
73558;BME280;61829;53.286;10.434;2023-05-25T01:22:19;102214.09;;;9.53;95.26
73558;BME280;61829;53.286;10.434;2023-05-25T01:24:58;102218.91;;;9.50;95.05
73558;BME280;61829;53.286;10.434;2023-05-25T01:29:58;102211.56;;;9.42;96.07
73558;BME280;61829;53.286;10.434;2023-05-25T01:32:46;102213.81;;;9.37;95.70
73558;BME280;61829;53.286;10.434;2023-05-25T01:35:13;102213.41;;;9.32;95.82
73558;BME280;61829;53.286;10.434;2023-05-25T01:37:50;102211.84;;;9.29;95.47
73558;BME280;61829;53.286;10.434;2023-05-25T01:40:16;102211.44;;;9.24;95.72
73558;BME280;61829;53.286;10.434;2023-05-25T01:42:42;102215.41;;;9.20;96.04
73558;BME280;61829;53.286;10.434;2023-05-25T01:45:09;102210.28;;;9.17;96.58
73558;BME280;61829;53.286;10.434;2023-05-25T01:52:44;102203.22;;;9.06;96.99
73558;BME280;61829;53.286;10.434;2023-05-25T01:55:14;102205.91;;;9.06;96.76
73558;BME280;61829;53.286;10.434;2023-05-25T01:57:45;102203.34;;;9.05;97.78
73558;BME280;61829;53.286;10.434;2023-05-25T02:00:14;102207.34;;;9.01;97.62
73558;BME280;61829;53.286;10.434;2023-05-25T02:02:42;102216.38;;;8.99;97.92
73558;BME280;61829;53.286;10.434;2023-05-25T02:05:09;102213.00;;;8.97;98.66
73558;BME280;61829;53.286;10.434;2023-05-25T02:07:36;102209.59;;;8.95;98.46
73558;BME280;61829;53.286;10.434;2023-05-25T02:10:02;102214.97;;;8.95;98.45
73558;BME280;61829;53.286;10.434;2023-05-25T02:12:28;102216.66;;;8.96;98.41
73558;BME280;61829;53.286;10.434;2023-05-25T02:14:55;102219.34;;;8.96;98.55
73558;BME280;61829;53.286;10.434;2023-05-25T02:17:21;102212.13;;;8.97;98.89
73558;BME280;61829;53.286;10.434;2023-05-25T02:19:46;102216.53;;;8.98;98.43
73558;BME280;61829;53.286;10.434;2023-05-25T02:22:17;102210.31;;;8.97;99.22
73558;BME280;61829;53.286;10.434;2023-05-25T02:24:43;102214.97;;;8.95;98.45
73558;BME280;61829;53.286;10.434;2023-05-25T02:27:09;102206.91;;;8.95;98.40
73558;BME280;61829;53.286;10.434;2023-05-25T02:29:37;102210.44;;;8.96;98.91
73558;BME280;61829;53.286;10.434;2023-05-25T02:32:03;102213.97;;;8.96;98.89
73558;BME280;61829;53.286;10.434;2023-05-25T02:34:29;102214.81;;;8.97;99.14
73558;BME280;61829;53.286;10.434;2023-05-25T02:36:55;102209.44;;;8.97;99.07
73558;BME280;61829;53.286;10.434;2023-05-25T02:39:21;102213.00;;;8.97;99.17
73558;BME280;61829;53.286;10.434;2023-05-25T02:41:47;102212.13;;;8.97;99.08
73558;BME280;61829;53.286;10.434;2023-05-25T02:44:12;102213.84;;;8.98;99.27
73558;BME280;61829;53.286;10.434;2023-05-25T02:46:38;102204.06;;;8.97;99.28
73558;BME280;61829;53.286;10.434;2023-05-25T02:49:04;102216.53;;;8.98;99.10
73558;BME280;61829;53.286;10.434;2023-05-25T02:51:30;102213.69;;;8.99;99.66
73558;BME280;61829;53.286;10.434;2023-05-25T02:53:56;102216.38;;;8.99;100.00
73558;BME280;61829;53.286;10.434;2023-05-25T02:56:22;102219.06;;;8.99;100.00
73558;BME280;61829;53.286;10.434;2023-05-25T02:58:48;102219.78;;;9.02;100.00
73558;BME280;61829;53.286;10.434;2023-05-25T03:01:14;102220.78;;;9.01;100.00
73558;BME280;61829;53.286;10.434;2023-05-25T03:03:44;102219.66;;;9.03;100.00
73558;BME280;61829;53.286;10.434;2023-05-25T03:06:12;102222.19;;;9.05;100.00
73558;BME280;61829;53.286;10.434;2023-05-25T03:08:38;102222.91;;;9.07;100.00
73558;BME280;61829;53.286;10.434;2023-05-25T03:11:05;102223.63;;;9.09;100.00
73558;BME280;61829;53.286;10.434;2023-05-25T03:13:31;102220.75;;;9.10;100.00
73558;BME280;61829;53.286;10.434;2023-05-25T03:15:57;102217.94;;;9.12;100.00
73558;BME280;61829;53.286;10.434;2023-05-25T03:18:23;102216.81;;;9.14;100.00
73558;BME280;61829;53.286;10.434;2023-05-25T03:20:49;102221.19;;;9.15;100.00
73558;BME280;61829;53.286;10.434;2023-05-25T03:23:15;102230.81;;;9.18;100.00
73558;BME280;61829;53.286;10.434;2023-05-25T03:25:41;102231.66;;;9.18;100.00
73558;BME280;61829;53.286;10.434;2023-05-25T03:28:07;102229.69;;;9.20;100.00
73558;BME280;61829;53.286;10.434;2023-05-25T03:30:33;102230.53;;;9.21;100.00
73558;BME280;61829;53.286;10.434;2023-05-25T03:32:59;102232.94;;;9.24;100.00
73558;BME280;61829;53.286;10.434;2023-05-25T03:35:25;102235.34;;;9.27;100.00
73558;BME280;61829;53.286;10.434;2023-05-25T03:37:50;102237.91;;;9.29;100.00
73558;BME280;61829;53.286;10.434;2023-05-25T03:40:17;102238.59;;;9.31;100.00
73558;BME280;61829;53.286;10.434;2023-05-25T03:42:42;102233.94;;;9.33;100.00
73558;BME280;61829;53.286;10.434;2023-05-25T03:45:09;102232.81;;;9.35;100.00
73558;BME280;61829;53.286;10.434;2023-05-25T03:47:35;102232.50;;;9.38;100.00
73558;BME280;61829;53.286;10.434;2023-05-25T03:50:03;102240.16;;;9.43;100.00
73558;BME280;61829;53.286;10.434;2023-05-25T03:52:29;102245.41;;;9.44;100.00
73558;BME280;61829;53.286;10.434;2023-05-25T03:54:55;102241.56;;;9.47;100.00
73558;BME280;61829;53.286;10.434;2023-05-25T03:57:21;102238.59;;;9.50;100.00
73558;BME280;61829;53.286;10.434;2023-05-25T03:59:46;102237.47;;;9.53;100.00
73558;BME280;61829;53.286;10.434;2023-05-25T04:02:12;102243.56;;;9.55;100.00
73558;BME280;61829;53.286;10.434;2023-05-25T04:04:38;102243.81;;;9.61;100.00
73558;BME280;61829;53.286;10.434;2023-05-25T04:07:08;102251.59;;;9.64;100.00
73558;BME280;61829;53.286;10.434;2023-05-25T04:09:34;102250.63;;;9.65;100.00
73558;BME280;61829;53.286;10.434;2023-05-25T04:12:00;102254.72;;;9.70;100.00
73558;BME280;61829;53.286;10.434;2023-05-25T04:14:27;102261.66;;;9.72;100.00
73558;BME280;61829;53.286;10.434;2023-05-25T04:16:52;102264.06;;;9.75;100.00
73558;BME280;61829;53.286;10.434;2023-05-25T04:19:18;102263.06;;;9.76;100.00
73558;BME280;61829;53.286;10.434;2023-05-25T04:21:44;102271.13;;;9.76;99.71
73558;BME280;61829;53.286;10.434;2023-05-25T04:24:10;102270.16;;;9.77;99.77
73558;BME280;61829;53.286;10.434;2023-05-25T04:26:36;102263.94;;;9.77;100.00
73558;BME280;61829;53.286;10.434;2023-05-25T04:29:04;102264.63;;;9.79;100.00
73558;BME280;61829;53.286;10.434;2023-05-25T04:31:31;102263.66;;;9.80;99.79
73558;BME280;61829;53.286;10.434;2023-05-25T04:37:20;102265.63;;;9.78;100.00
73558;BME280;61829;53.286;10.434;2023-05-25T04:39:46;102268.31;;;9.78;100.00
73558;BME280;61829;53.286;10.434;2023-05-25T04:42:11;102274.41;;;9.80;100.00
73558;BME280;61829;53.286;10.434;2023-05-25T04:44:38;102271.25;;;9.84;100.00
73558;BME280;61829;53.286;10.434;2023-05-25T04:47:05;102280.78;;;9.88;100.00
73558;BME280;61829;53.286;10.434;2023-05-25T04:49:32;102292.22;;;9.90;100.00
73558;BME280;61829;53.286;10.434;2023-05-25T04:51:59;102287.72;;;9.91;99.38
73558;BME280;61829;53.286;10.434;2023-05-25T04:54:25;102281.31;;;9.92;99.37
73558;BME280;61829;53.286;10.434;2023-05-25T04:56:51;102281.44;;;9.90;99.39
73558;BME280;61829;53.286;10.434;2023-05-25T04:59:18;102282.47;;;9.89;99.35
73558;BME280;61829;53.286;10.434;2023-05-25T05:01:43;102287.56;;;9.93;99.39
73558;BME280;61829;53.286;10.434;2023-05-25T05:04:10;102298.03;;;9.96;98.82
73558;BME280;61829;53.286;10.434;2023-05-25T05:06:36;102299.03;;;9.95;98.43
73558;BME280;61829;53.286;10.434;2023-05-25T05:09:02;102299.88;;;9.95;97.78
73558;BME280;61829;53.286;10.434;2023-05-25T05:11:28;102308.97;;;9.94;97.78
73558;BME280;61829;53.286;10.434;2023-05-25T05:13:55;102310.53;;;9.97;97.81
73558;BME280;61829;53.286;10.434;2023-05-25T05:16:21;102322.25;;;9.96;97.87
73558;BME280;61829;53.286;10.434;2023-05-25T05:18:47;102312.06;;;9.99;97.81
73558;BME280;61829;53.286;10.434;2023-05-25T05:21:13;102315.47;;;10.01;97.72
73558;BME280;61829;53.286;10.434;2023-05-25T05:23:40;102307.81;;;9.97;97.99
73558;BME280;61829;53.286;10.434;2023-05-25T05:26:06;102317.47;;;9.99;98.31
73558;BME280;61829;53.286;10.434;2023-05-25T05:28:36;102309.78;;;10.04;97.78
73558;BME280;61829;53.286;10.434;2023-05-25T05:31:02;102318.00;;;10.03;97.28
73558;BME280;61829;53.286;10.434;2023-05-25T05:33:31;102324.66;;;9.99;96.87
73558;BME280;61829;53.286;10.434;2023-05-25T05:35:56;102321.28;;;9.97;97.22
73558;BME280;61829;53.286;10.434;2023-05-25T05:38:22;102319.44;;;9.97;96.70
73558;BME280;61829;53.286;10.434;2023-05-25T05:40:48;102322.13;;;9.97;95.83
73558;BME280;61829;53.286;10.434;2023-05-25T05:43:14;102319.56;;;9.96;95.60
73558;BME280;61829;53.286;10.434;2023-05-25T05:45:39;102316.59;;;9.99;96.58
73558;BME280;61829;53.286;10.434;2023-05-25T05:48:08;102324.25;;;10.03;96.76
73558;BME280;61829;53.286;10.434;2023-05-25T05:50:37;102331.03;;;10.07;95.44
73558;BME280;61829;53.286;10.434;2023-05-25T05:53:04;102327.78;;;10.04;95.09
73558;BME280;61829;53.286;10.434;2023-05-25T05:55:31;102334.19;;;10.03;95.21
73558;BME280;61829;53.286;10.434;2023-05-25T05:57:57;102335.56;;;10.07;95.37
73558;BME280;61829;53.286;10.434;2023-05-25T06:00:23;102338.13;;;10.08;95.49
73558;BME280;61829;53.286;10.434;2023-05-25T06:02:49;102336.41;;;10.07;95.88
73558;BME280;61829;53.286;10.434;2023-05-25T06:05:16;102338.97;;;10.09;96.16
73558;BME280;61829;53.286;10.434;2023-05-25T06:07:42;102342.38;;;10.11;95.74
73558;BME280;61829;53.286;10.434;2023-05-25T06:10:08;102340.09;;;10.16;95.40
73558;BME280;61829;53.286;10.434;2023-05-25T06:12:35;102339.09;;;10.17;95.28
73558;BME280;61829;53.286;10.434;2023-05-25T06:15:01;102347.75;;;10.21;95.70
73558;BME280;61829;53.286;10.434;2023-05-25T06:17:27;102343.38;;;10.20;94.92
73558;BME280;61829;53.286;10.434;2023-05-25T06:19:54;102342.06;;;10.24;95.12
73558;BME280;61829;53.286;10.434;2023-05-25T06:22:20;102349.47;;;10.31;95.05
73558;BME280;61829;53.286;10.434;2023-05-25T06:24:48;102346.59;;;10.43;94.10
73558;BME280;61829;53.286;10.434;2023-05-25T06:27:15;102359.03;;;10.53;92.68
73558;BME280;61829;53.286;10.434;2023-05-25T06:29:41;102361.28;;;10.58;90.46
73558;BME280;61829;53.286;10.434;2023-05-25T06:32:08;102362.72;;;10.62;90.97
73558;BME280;61829;53.286;10.434;2023-05-25T06:34:35;102361.81;;;10.71;90.63
73558;BME280;61829;53.286;10.434;2023-05-25T06:37:01;102364.91;;;10.76;88.68
73558;BME280;61829;53.286;10.434;2023-05-25T06:39:27;102366.59;;;10.77;89.33
73558;BME280;61829;53.286;10.434;2023-05-25T06:41:53;102371.69;;;10.81;89.23
73558;BME280;61829;53.286;10.434;2023-05-25T06:44:19;102369.56;;;10.84;90.22
73558;BME280;61829;53.286;10.434;2023-05-25T06:46:46;102377.19;;;10.89;88.22
73558;BME280;61829;53.286;10.434;2023-05-25T06:49:11;102375.63;;;10.96;89.13
73558;BME280;61829;53.286;10.434;2023-05-25T06:51:37;102371.72;;;11.08;88.78
73558;BME280;61829;53.286;10.434;2023-05-25T06:54:03;102375.22;;;11.18;87.37
73558;BME280;61829;53.286;10.434;2023-05-25T06:56:29;102375.53;;;11.15;86.45
73558;BME280;61829;53.286;10.434;2023-05-25T06:58:55;102375.75;;;11.22;85.19
73558;BME280;61829;53.286;10.434;2023-05-25T07:01:21;102376.84;;;11.29;85.63
73558;BME280;61829;53.286;10.434;2023-05-25T07:03:47;102379.63;;;11.37;85.80
73558;BME280;61829;53.286;10.434;2023-05-25T07:06:13;102374.84;;;11.31;84.83
73558;BME280;61829;53.286;10.434;2023-05-25T07:08:41;102373.00;;;11.32;86.45
73558;BME280;61829;53.286;10.434;2023-05-25T07:11:07;102374.81;;;11.41;85.47
73558;BME280;61829;53.286;10.434;2023-05-25T07:13:36;102373.47;;;11.45;85.52
73558;BME280;61829;53.286;10.434;2023-05-25T07:16:02;102370.03;;;11.53;84.94
73558;BME280;61829;53.286;10.434;2023-05-25T07:18:28;102368.97;;;11.63;84.82
73558;BME280;61829;53.286;10.434;2023-05-25T07:20:54;102370.03;;;11.88;84.26
73558;BME280;61829;53.286;10.434;2023-05-25T07:23:20;102384.59;;;12.13;81.69
73558;BME280;61829;53.286;10.434;2023-05-25T07:25:46;102367.81;;;12.80;77.94
73558;BME280;61829;53.286;10.434;2023-05-25T07:28:12;102376.16;;;13.37;75.24
73558;BME280;61829;53.286;10.434;2023-05-25T07:30:39;102374.72;;;14.17;72.51
73558;BME280;61829;53.286;10.434;2023-05-25T07:33:05;102372.81;;;14.50;71.43
73558;BME280;61829;53.286;10.434;2023-05-25T07:35:31;102367.13;;;14.84;70.32
73558;BME280;61829;53.286;10.434;2023-05-25T07:38:01;102370.66;;;15.55;68.99
73558;BME280;61829;53.286;10.434;2023-05-25T07:40:27;102376.19;;;15.93;67.62
73558;BME280;61829;53.286;10.434;2023-05-25T07:42:53;102386.56;;;16.12;65.92
73558;BME280;61829;53.286;10.434;2023-05-25T07:45:19;102382.75;;;16.22;65.06
73558;BME280;61829;53.286;10.434;2023-05-25T07:47:46;102383.56;;;16.60;63.38
73558;BME280;61829;53.286;10.434;2023-05-25T07:50:13;102378.56;;;17.23;61.99
73558;BME280;61829;53.286;10.434;2023-05-25T07:52:38;102384.13;;;17.87;59.95
73558;BME280;61829;53.286;10.434;2023-05-25T07:55:05;102382.09;;;17.96;58.09
73558;BME280;61829;53.286;10.434;2023-05-25T07:57:31;102380.34;;;17.67;57.08
73558;BME280;61829;53.286;10.434;2023-05-25T07:59:57;102380.00;;;17.55;56.28
73558;BME280;61829;53.286;10.434;2023-05-25T08:02:23;102385.25;;;17.57;57.57
73558;BME280;61829;53.286;10.434;2023-05-25T08:04:49;102381.84;;;17.33;58.56
73558;BME280;61829;53.286;10.434;2023-05-25T08:07:15;102383.91;;;17.31;58.14
73558;BME280;61829;53.286;10.434;2023-05-25T08:09:41;102388.47;;;17.45;58.28
73558;BME280;61829;53.286;10.434;2023-05-25T08:12:07;102379.34;;;17.53;58.31
73558;BME280;61829;53.286;10.434;2023-05-25T08:14:33;102378.63;;;17.44;58.50
73558;BME280;61829;53.286;10.434;2023-05-25T08:16:58;102387.31;;;17.55;58.90
73558;BME280;61829;53.286;10.434;2023-05-25T08:19:24;102385.81;;;17.88;58.03
73558;BME280;61829;53.286;10.434;2023-05-25T08:21:50;102383.34;;;18.43;56.07
73558;BME280;61829;53.286;10.434;2023-05-25T08:24:16;102383.06;;;18.66;53.69
73558;BME280;61829;53.286;10.434;2023-05-25T08:26:42;102392.75;;;18.69;54.87
73558;BME280;61829;53.286;10.434;2023-05-25T08:29:08;102398.19;;;18.97;53.39
73558;BME280;61829;53.286;10.434;2023-05-25T08:31:33;102389.13;;;18.96;52.75
73558;BME280;61829;53.286;10.434;2023-05-25T08:34:00;102392.84;;;19.23;52.44
73558;BME280;61829;53.286;10.434;2023-05-25T08:36:26;102388.75;;;19.54;50.84
73558;BME280;61829;53.286;10.434;2023-05-25T08:38:52;102384.97;;;19.62;52.12
73558;BME280;61829;53.286;10.434;2023-05-25T08:41:18;102388.50;;;19.42;51.42
73558;BME280;61829;53.286;10.434;2023-05-25T08:43:45;102381.13;;;19.43;50.91
73558;BME280;61829;53.286;10.434;2023-05-25T08:46:13;102387.44;;;19.50;51.16
73558;BME280;61829;53.286;10.434;2023-05-25T08:48:44;102395.81;;;20.10;50.28
73558;BME280;61829;53.286;10.434;2023-05-25T08:51:12;102393.28;;;20.61;48.95
73558;BME280;61829;53.286;10.434;2023-05-25T08:53:39;102397.56;;;21.02;46.77
73558;BME280;61829;53.286;10.434;2023-05-25T08:58:52;102396.75;;;20.95;45.71
73558;BME280;61829;53.286;10.434;2023-05-25T09:01:25;102396.81;;;20.75;46.02
73558;BME280;61829;53.286;10.434;2023-05-25T09:03:54;102402.53;;;20.67;47.27
73558;BME280;61829;53.286;10.434;2023-05-25T09:06:23;102405.22;;;20.87;46.28
73558;BME280;61829;53.286;10.434;2023-05-25T09:08:49;102404.84;;;21.28;45.90
73558;BME280;61829;53.286;10.434;2023-05-25T09:11:17;102397.47;;;21.74;43.22
73558;BME280;61829;53.286;10.434;2023-05-25T09:13:43;102398.19;;;21.88;44.13
73558;BME280;61829;53.286;10.434;2023-05-25T09:16:08;102399.13;;;22.07;42.90
73558;BME280;61829;53.286;10.434;2023-05-25T09:18:35;102397.97;;;22.21;42.87
73558;BME280;61829;53.286;10.434;2023-05-25T09:21:01;102399.13;;;22.57;43.05
73558;BME280;61829;53.286;10.434;2023-05-25T09:23:27;102397.94;;;22.90;42.11
73558;BME280;61829;53.286;10.434;2023-05-25T09:25:54;102399.69;;;22.66;42.87
73558;BME280;61829;53.286;10.434;2023-05-25T09:28:20;102395.16;;;22.03;43.11
73558;BME280;61829;53.286;10.434;2023-05-25T09:30:49;102398.31;;;22.31;43.48
73558;BME280;61829;53.286;10.434;2023-05-25T09:33:15;102398.88;;;22.40;43.66
73558;BME280;61829;53.286;10.434;2023-05-25T09:35:44;102401.59;;;22.65;42.83
73558;BME280;61829;53.286;10.434;2023-05-25T09:38:15;102408.06;;;22.96;41.48
73558;BME280;61829;53.286;10.434;2023-05-25T09:40:40;102400.69;;;23.26;41.49
73558;BME280;61829;53.286;10.434;2023-05-25T09:43:07;102398.97;;;23.44;40.48
73558;BME280;61829;53.286;10.434;2023-05-25T09:45:33;102401.59;;;23.20;40.09
73558;BME280;61829;53.286;10.434;2023-05-25T09:48:00;102403.84;;;23.30;41.27
73558;BME280;61829;53.286;10.434;2023-05-25T09:50:30;102408.47;;;22.93;40.75
73558;BME280;61829;53.286;10.434;2023-05-25T09:52:58;102397.22;;;22.76;41.98
73558;BME280;61829;53.286;10.434;2023-05-25T09:55:28;102404.84;;;22.99;41.50
73558;BME280;61829;53.286;10.434;2023-05-25T09:57:55;102403.44;;;22.71;40.73
73558;BME280;61829;53.286;10.434;2023-05-25T10:00:22;102402.47;;;22.59;40.34
73558;BME280;61829;53.286;10.434;2023-05-25T10:02:50;102413.41;;;22.66;41.89
73558;BME280;61829;53.286;10.434;2023-05-25T10:05:15;102408.22;;;22.57;40.32
73558;BME280;61829;53.286;10.434;2023-05-25T10:07:44;102411.50;;;22.66;41.24
73558;BME280;61829;53.286;10.434;2023-05-25T10:10:13;102407.19;;;22.95;40.84
73558;BME280;61829;53.286;10.434;2023-05-25T10:12:43;102409.44;;;23.05;40.12
73558;BME280;61829;53.286;10.434;2023-05-25T10:15:12;102419.72;;;23.28;38.68
73558;BME280;61829;53.286;10.434;2023-05-25T10:17:54;102430.50;;;23.60;37.62
73558;BME280;61829;53.286;10.434;2023-05-25T10:20:23;102424.84;;;23.54;37.13
73558;BME280;61829;53.286;10.434;2023-05-25T10:25:22;102422.88;;;23.62;38.74
73558;BME280;61829;53.286;10.434;2023-05-25T10:28:06;102429.59;;;23.96;37.81
73558;BME280;61829;53.286;10.434;2023-05-25T10:30:32;102421.13;;;24.09;38.28
73558;BME280;61829;53.286;10.434;2023-05-25T10:33:02;102427.31;;;23.93;37.91
73558;BME280;61829;53.286;10.434;2023-05-25T10:35:28;102425.69;;;23.73;37.40
73558;BME280;61829;53.286;10.434;2023-05-25T10:37:54;102429.06;;;23.57;38.20
73558;BME280;61829;53.286;10.434;2023-05-25T10:40:21;102419.88;;;23.63;37.31
73558;BME280;61829;53.286;10.434;2023-05-25T10:42:49;102423.56;;;23.75;36.86
73558;BME280;61829;53.286;10.434;2023-05-25T10:45:18;102414.50;;;23.68;37.56
73558;BME280;61829;53.286;10.434;2023-05-25T10:47:45;102410.25;;;23.54;35.75
73558;BME280;61829;53.286;10.434;2023-05-25T10:52:44;102413.38;;;23.58;36.13
73558;BME280;61829;53.286;10.434;2023-05-25T10:55:09;102421.50;;;23.71;36.07
73558;BME280;61829;53.286;10.434;2023-05-25T10:57:37;102422.28;;;23.90;36.71
73558;BME280;61829;53.286;10.434;2023-05-25T11:00:05;102419.72;;;23.77;35.17
73558;BME280;61829;53.286;10.434;2023-05-25T11:02:49;102404.81;;;23.17;34.47
73558;BME280;61829;53.286;10.434;2023-05-25T11:07:55;102401.84;;;22.82;37.73
73558;BME280;61829;53.286;10.434;2023-05-25T11:10:43;102403.16;;;23.16;36.33
73558;BME280;61829;53.286;10.434;2023-05-25T11:18:52;102410.16;;;23.61;35.69
73558;BME280;61829;53.286;10.434;2023-05-25T11:26:25;102400.00;;;23.61;35.98
73558;BME280;61829;53.286;10.434;2023-05-25T11:28:53;102409.38;;;23.42;34.16
73558;BME280;61829;53.286;10.434;2023-05-25T11:31:32;102401.66;;;23.32;35.82
73558;BME280;61829;53.286;10.434;2023-05-25T11:34:00;102400.63;;;23.15;36.67
73558;BME280;61829;53.286;10.434;2023-05-25T11:36:27;102398.19;;;23.25;36.94
73558;BME280;61829;53.286;10.434;2023-05-25T11:39:04;102408.16;;;23.38;36.29
73558;BME280;61829;53.286;10.434;2023-05-25T11:41:30;102405.84;;;23.04;35.73
73558;BME280;61829;53.286;10.434;2023-05-25T11:44:04;102401.38;;;23.03;36.83
73558;BME280;61829;53.286;10.434;2023-05-25T11:49:45;102394.94;;;23.77;36.07
73558;BME280;61829;53.286;10.434;2023-05-25T11:52:13;102395.47;;;23.97;36.71
73558;BME280;61829;53.286;10.434;2023-05-25T11:54:40;102401.06;;;23.79;35.18
73558;BME280;61829;53.286;10.434;2023-05-25T11:57:14;102396.94;;;23.69;36.00
73558;BME280;61829;53.286;10.434;2023-05-25T11:59:49;102391.03;;;23.66;34.36
73558;BME280;61829;53.286;10.434;2023-05-25T12:02:15;102391.50;;;23.63;35.53
73558;BME280;61829;53.286;10.434;2023-05-25T12:04:54;102386.72;;;23.58;36.59
73558;BME280;61829;53.286;10.434;2023-05-25T12:07:22;102385.91;;;23.69;36.18
73558;BME280;61829;53.286;10.434;2023-05-25T12:09:48;102381.47;;;23.38;35.43
73558;BME280;61829;53.286;10.434;2023-05-25T12:12:16;102372.31;;;23.44;35.53
73558;BME280;61829;53.286;10.434;2023-05-25T12:14:49;102372.91;;;23.16;36.96
73558;BME280;61829;53.286;10.434;2023-05-25T12:17:18;102378.91;;;23.55;36.41
73558;BME280;61829;53.286;10.434;2023-05-25T12:20:17;102380.69;;;23.80;36.15
73558;BME280;61829;53.286;10.434;2023-05-25T12:22:44;102381.16;;;23.77;36.50
73558;BME280;61829;53.286;10.434;2023-05-25T12:25:11;102383.56;;;23.73;37.56
73558;BME280;61829;53.286;10.434;2023-05-25T12:27:38;102369.13;;;24.01;35.92
73558;BME280;61829;53.286;10.434;2023-05-25T12:30:07;102371.78;;;24.19;34.69
73558;BME280;61829;53.286;10.434;2023-05-25T12:32:33;102376.09;;;24.27;36.03
73558;BME280;61829;53.286;10.434;2023-05-25T12:35:05;102370.94;;;24.19;35.99
73558;BME280;61829;53.286;10.434;2023-05-25T12:37:31;102378.72;;;23.98;34.96
73558;BME280;61829;53.286;10.434;2023-05-25T12:40:00;102386.94;;;23.75;36.67
73558;BME280;61829;53.286;10.434;2023-05-25T12:42:26;102378.78;;;23.50;36.88
73558;BME280;61829;53.286;10.434;2023-05-25T12:44:56;102381.53;;;23.20;37.30
73558;BME280;61829;53.286;10.434;2023-05-25T12:47:23;102379.75;;;22.89;38.19
73558;BME280;61829;53.286;10.434;2023-05-25T12:53:17;102385.47;;;22.87;38.28
73558;BME280;61829;53.286;10.434;2023-05-25T12:55:43;102387.78;;;22.53;37.65
73558;BME280;61829;53.286;10.434;2023-05-25T12:58:26;102382.59;;;22.38;39.43
73558;BME280;61829;53.286;10.434;2023-05-25T13:00:52;102376.66;;;22.41;37.83
73558;BME280;61829;53.286;10.434;2023-05-25T13:03:18;102373.44;;;22.45;38.39
73558;BME280;61829;53.286;10.434;2023-05-25T13:05:44;102372.78;;;22.31;38.63
73558;BME280;61829;53.286;10.434;2023-05-25T13:08:12;102367.78;;;22.21;39.47
73558;BME280;61829;53.286;10.434;2023-05-25T13:10:38;102363.38;;;22.38;39.03
73558;BME280;61829;53.286;10.434;2023-05-25T13:13:04;102363.41;;;22.57;39.20
73558;BME280;61829;53.286;10.434;2023-05-25T13:15:32;102361.75;;;22.74;38.81
73558;BME280;61829;53.286;10.434;2023-05-25T13:17:58;102359.75;;;22.81;37.71
73558;BME280;61829;53.286;10.434;2023-05-25T13:20:25;102359.28;;;22.66;38.07
73558;BME280;61829;53.286;10.434;2023-05-25T13:22:52;102364.16;;;22.46;38.00